createdAt,value
2019-02-17T00:00:42.234Z,65.20
2019-02-17T00:04:45.898Z,58.73
2019-02-17T00:08:49.914Z,59.90
2019-02-17T00:12:53.249Z,57.60
2019-02-17T00:16:57.038Z,62.47
2019-02-17T00:21:00.886Z,65.00
2019-02-17T00:25:04.954Z,68.73
2019-02-17T00:29:08.354Z,62.90
2019-02-17T00:33:11.899Z,63.90
2019-02-17T00:37:15.247Z,63.97
2019-02-17T00:41:18.962Z,60.37
2019-02-17T00:45:22.287Z,60.87
2019-02-17T00:49:25.842Z,63.17
2019-02-17T00:53:29.178Z,64.63
2019-02-17T00:57:32.475Z,63.07
2019-02-17T01:01:36.266Z,61.83
2019-02-17T01:05:39.550Z,61.47
2019-02-17T01:09:43.714Z,62.43
2019-02-17T01:13:47.434Z,65.27
2019-02-17T01:17:50.826Z,59.37
2019-02-17T01:21:54.444Z,58.90
2019-02-17T01:25:58.358Z,59.50
2019-02-17T01:30:02.266Z,58.27
2019-02-17T01:34:08.847Z,58.00
2019-02-17T01:38:12.382Z,56.77
2019-02-17T01:42:16.154Z,62.27
2019-02-17T01:46:19.874Z,59.27
2019-02-17T01:50:23.474Z,63.20
2019-02-17T01:54:27.495Z,61.77
2019-02-17T01:58:31.272Z,60.80
2019-02-17T02:02:34.554Z,59.57
2019-02-17T02:06:37.866Z,60.80
2019-02-17T02:10:41.160Z,59.80
2019-02-17T02:14:44.441Z,55.83
2019-02-17T02:18:47.754Z,58.50
2019-02-17T02:22:51.494Z,51.43
2019-02-17T02:26:54.785Z,53.90
2019-02-17T02:30:59.454Z,50.90
2019-02-17T02:35:03.258Z,50.80
2019-02-17T02:39:07.585Z,52.03
2019-02-17T02:43:10.891Z,49.80
2019-02-17T02:47:14.182Z,52.77
2019-02-17T02:51:17.931Z,50.53
2019-02-17T02:55:21.233Z,47.93
2019-02-17T02:59:24.525Z,48.73
2019-02-17T03:03:27.810Z,49.43
2019-02-17T03:07:31.540Z,48.97
2019-02-17T03:11:34.843Z,45.90
2019-02-17T03:15:38.562Z,45.33
2019-02-17T03:19:41.867Z,47.60
2019-02-17T03:23:45.152Z,46.20
2019-02-17T03:27:48.535Z,43.83
2019-02-17T03:31:51.851Z,46.13
2019-02-17T03:35:55.447Z,47.00
2019-02-17T03:39:59.183Z,47.13
2019-02-17T03:44:02.650Z,45.57
2019-02-17T03:48:06.190Z,43.00
2019-02-17T03:52:09.946Z,45.63
2019-02-17T03:56:13.907Z,47.17
2019-02-17T04:00:17.618Z,47.37
2019-02-17T04:04:21.367Z,47.33
2019-02-17T04:08:25.082Z,48.77
2019-02-17T04:12:28.374Z,46.63
2019-02-17T04:16:31.758Z,47.80
2019-02-17T04:20:35.099Z,47.20
2019-02-17T04:24:38.407Z,45.77
2019-02-17T04:28:42.005Z,46.97
2019-02-17T04:32:46.019Z,46.60
2019-02-17T04:36:49.752Z,41.13
2019-02-17T04:40:53.042Z,43.30
2019-02-17T04:44:56.787Z,46.97
2019-02-17T04:49:00.505Z,45.57
2019-02-17T04:53:03.806Z,44.40
2019-02-17T04:57:07.536Z,45.03
2019-02-17T05:01:10.806Z,44.10
2019-02-17T05:05:14.111Z,43.07
2019-02-17T05:09:17.414Z,41.70
2019-02-17T05:13:21.132Z,40.70
2019-02-17T05:17:24.431Z,41.90
2019-02-17T05:21:28.158Z,44.97
2019-02-17T05:25:32.132Z,41.10
2019-02-17T05:29:35.458Z,43.93
2019-02-17T05:33:38.759Z,44.00
2019-02-17T05:37:42.110Z,45.27
2019-02-17T05:41:45.414Z,42.80
2019-02-17T05:45:48.708Z,42.70
2019-02-17T05:49:52.006Z,44.03
2019-02-17T05:53:55.303Z,44.37
2019-02-17T05:57:59.164Z,41.60
2019-02-17T06:02:02.483Z,44.40
2019-02-17T06:06:06.208Z,42.40
2019-02-17T06:10:09.574Z,45.47
2019-02-17T06:14:12.874Z,42.50
2019-02-17T06:18:16.678Z,43.40
2019-02-17T06:22:20.150Z,44.47
2019-02-17T06:26:23.726Z,43.60
2019-02-17T06:30:27.034Z,39.47
2019-02-17T06:34:30.794Z,43.20
2019-02-17T06:38:34.078Z,43.10
2019-02-17T06:42:37.818Z,37.87
2019-02-17T06:46:46.095Z,37.27
2019-02-17T06:50:49.390Z,40.30
2019-02-17T06:55:04.934Z,39.30
2019-02-17T06:59:09.005Z,36.30
2019-02-17T07:03:14.353Z,34.90
2019-02-17T07:07:17.321Z,37.27
2019-02-17T07:11:20.901Z,37.23
2019-02-17T07:15:25.158Z,36.07
2019-02-17T07:19:29.247Z,36.90
2019-02-17T07:23:32.982Z,35.67
2019-02-17T07:27:36.286Z,33.10
2019-02-17T07:31:40.336Z,33.47
2019-02-17T07:35:44.171Z,33.33
2019-02-17T07:39:47.459Z,35.20
2019-02-17T07:43:51.190Z,35.37
2019-02-17T07:47:54.943Z,33.63
2019-02-17T07:51:58.234Z,32.87
2019-02-17T07:56:01.554Z,29.57
2019-02-17T08:00:05.186Z,32.70
2019-02-17T08:04:08.931Z,30.40
2019-02-17T08:08:12.231Z,32.67
2019-02-17T08:12:15.946Z,32.13
2019-02-17T08:16:19.939Z,31.17
2019-02-17T08:20:23.670Z,31.27
2019-02-17T08:24:26.950Z,31.00
2019-02-17T08:28:30.978Z,32.00
2019-02-17T08:32:34.274Z,31.70
2019-02-17T08:36:37.574Z,29.70
2019-02-17T08:40:41.098Z,30.20
2019-02-17T08:44:44.835Z,27.73
2019-02-17T08:48:48.121Z,30.93
2019-02-17T08:52:51.858Z,28.00
2019-02-17T08:56:55.847Z,27.83
2019-02-17T09:00:59.126Z,26.03
2019-02-17T09:05:02.424Z,26.33
2019-02-17T09:09:06.798Z,27.10
2019-02-17T09:13:10.530Z,24.50
2019-02-17T09:17:13.838Z,23.70
2019-02-17T09:21:17.571Z,24.50
2019-02-17T09:25:20.854Z,24.43
2019-02-17T09:29:24.614Z,23.37
2019-02-17T09:33:27.990Z,22.70
2019-02-17T09:37:31.303Z,23.97
2019-02-17T09:41:34.614Z,24.10
2019-02-17T09:45:38.684Z,23.50
2019-02-17T09:49:42.711Z,23.57
2019-02-17T09:53:46.450Z,21.77
2019-02-17T09:57:49.738Z,21.23
2019-02-17T10:01:53.470Z,22.40
2019-02-17T10:05:56.778Z,21.83
2019-02-17T10:10:00.490Z,19.60
2019-02-17T10:14:03.794Z,20.00
2019-02-17T10:18:07.414Z,19.80
2019-02-17T10:22:11.151Z,19.47
2019-02-17T10:26:14.445Z,18.33
2019-02-17T10:30:18.380Z,19.20
2019-02-17T10:34:22.435Z,18.30
2019-02-17T10:38:26.538Z,19.20
2019-02-17T10:42:29.818Z,18.53
2019-02-17T10:46:33.138Z,19.77
2019-02-17T10:50:36.519Z,18.67
2019-02-17T10:54:39.814Z,17.20
2019-02-17T10:58:43.110Z,18.20
2019-02-17T11:02:47.702Z,19.00
2019-02-17T11:06:51.862Z,17.87
2019-02-17T11:10:56.283Z,18.03
2019-02-17T11:15:00.379Z,19.10
2019-02-17T11:19:04.123Z,17.50
2019-02-17T11:23:07.426Z,17.23
2019-02-17T11:27:11.155Z,18.23
2019-02-17T11:31:14.463Z,17.63
2019-02-17T11:35:17.846Z,16.10
2019-02-17T11:39:21.420Z,19.23
2019-02-17T11:43:25.164Z,18.00
2019-02-17T11:47:28.903Z,17.87
2019-02-17T11:51:32.198Z,17.40
2019-02-17T11:55:35.943Z,18.00
2019-02-17T11:59:39.666Z,19.57
2019-02-17T12:03:43.262Z,16.17
2019-02-17T12:07:47.119Z,16.30
2019-02-17T12:11:50.883Z,17.57
2019-02-17T12:15:54.186Z,15.43
2019-02-17T12:20:05.542Z,17.87
2019-02-17T12:24:31.154Z,17.23
2019-02-17T12:28:39.091Z,16.37
2019-02-17T12:32:42.406Z,16.50
2019-02-17T12:36:48.178Z,16.13
2019-02-17T12:40:52.146Z,17.70
2019-02-17T12:44:57.038Z,16.10
2019-02-17T12:49:00.634Z,17.83
2019-02-17T12:53:04.934Z,17.10
2019-02-17T12:57:08.254Z,18.00
2019-02-17T13:01:13.465Z,17.27
2019-02-17T13:05:16.583Z,16.17
2019-02-17T13:09:19.927Z,17.17
2019-02-17T13:13:23.281Z,16.73
2019-02-17T13:17:27.076Z,16.00
2019-02-17T13:21:30.647Z,14.47
2019-02-17T13:25:34.411Z,16.73
2019-02-17T13:29:40.247Z,15.50
2019-02-17T13:33:43.169Z,15.30
2019-02-17T13:37:46.729Z,16.17
2019-02-17T13:41:50.274Z,16.03
2019-02-17T13:45:53.606Z,14.40
2019-02-17T13:49:56.898Z,15.20
2019-02-17T13:54:00.650Z,15.50
2019-02-17T13:58:04.034Z,15.50
2019-02-17T14:02:07.758Z,14.20
2019-02-17T14:06:11.522Z,14.83
2019-02-17T14:10:14.842Z,14.77
2019-02-17T14:14:18.562Z,15.87
2019-02-17T14:18:22.306Z,14.60
2019-02-17T14:22:25.611Z,15.20
2019-02-17T14:26:28.907Z,14.30
2019-02-17T14:30:32.195Z,14.30
2019-02-17T14:34:35.511Z,15.10
2019-02-17T14:38:39.483Z,15.83
2019-02-17T14:42:42.986Z,16.50
2019-02-17T14:46:46.414Z,15.90
2019-02-17T14:50:50.703Z,16.77
2019-02-17T14:54:54.095Z,16.23
2019-02-17T14:58:58.150Z,16.67
2019-02-17T15:03:01.575Z,17.40
2019-02-17T15:07:04.858Z,15.83
2019-02-17T15:11:08.175Z,17.53
2019-02-17T15:15:11.548Z,18.40
2019-02-17T15:19:15.082Z,17.63
2019-02-17T15:23:18.846Z,18.33
2019-02-17T15:27:22.598Z,17.33
2019-02-17T15:31:25.909Z,16.50
2019-02-17T15:35:29.634Z,16.73
2019-02-17T15:39:32.935Z,16.53
2019-02-17T15:43:37.325Z,17.13
2019-02-17T15:47:40.618Z,17.33
2019-02-17T15:51:43.910Z,18.17
2019-02-17T15:55:47.203Z,17.33
2019-02-17T15:59:50.503Z,18.33
2019-02-17T16:03:53.833Z,18.73
2019-02-17T16:07:57.118Z,18.30
2019-02-17T16:12:00.422Z,18.07
2019-02-17T16:16:03.803Z,18.90
2019-02-17T16:20:09.767Z,16.93
2019-02-17T16:24:13.078Z,18.17
2019-02-17T16:28:16.714Z,18.57
2019-02-17T16:32:21.826Z,17.30
2019-02-17T16:36:25.274Z,16.17
2019-02-17T16:40:28.642Z,18.20
2019-02-17T16:44:32.402Z,17.43
2019-02-17T16:48:35.706Z,18.20
2019-02-17T16:52:38.994Z,17.67
2019-02-17T16:56:42.730Z,19.20
2019-02-17T17:00:46.030Z,16.80
2019-02-17T17:04:49.837Z,18.17
2019-02-17T17:08:53.140Z,16.90
2019-02-17T17:12:56.514Z,16.33
2019-02-17T17:16:59.805Z,18.60
2019-02-17T17:21:03.127Z,16.20
2019-02-17T17:25:06.878Z,17.00
2019-02-17T17:29:10.606Z,19.47
2019-02-17T17:33:14.390Z,14.93
2019-02-17T17:37:17.671Z,17.53
2019-02-17T17:41:21.743Z,18.60
2019-02-17T17:45:25.515Z,17.23
2019-02-17T17:49:28.803Z,18.20
2019-02-17T17:53:32.115Z,19.17
2019-02-17T17:57:35.714Z,17.67
2019-02-17T18:01:39.002Z,18.20
2019-02-17T18:05:42.306Z,19.27
2019-02-17T18:09:46.050Z,20.70
2019-02-17T18:13:49.334Z,18.87
2019-02-17T18:17:54.860Z,19.73
2019-02-17T18:21:57.679Z,19.47
2019-02-17T18:26:01.407Z,21.17
2019-02-17T18:30:04.943Z,20.07
2019-02-17T18:34:08.262Z,19.87
2019-02-17T18:38:12.002Z,20.23
2019-02-17T18:42:15.308Z,19.80
2019-02-17T18:46:18.606Z,20.60
2019-02-17T18:50:21.911Z,21.37
2019-02-17T18:54:25.227Z,20.70
2019-02-17T18:58:29.203Z,20.77
2019-02-17T19:02:32.958Z,19.70
2019-02-17T19:06:36.702Z,20.63
2019-02-17T19:10:39.995Z,20.20
2019-02-17T19:14:43.742Z,21.30
2019-02-17T19:18:47.042Z,21.60
2019-02-17T19:22:50.939Z,19.53
2019-02-17T19:26:54.682Z,20.30
2019-02-17T19:30:57.970Z,21.07
2019-02-17T19:35:01.286Z,21.67
2019-02-17T19:39:05.655Z,21.00
2019-02-17T19:43:09.020Z,19.60
2019-02-17T19:47:12.884Z,20.83
2019-02-17T19:51:16.192Z,21.30
2019-02-17T19:55:19.935Z,21.23
2019-02-17T19:59:24.424Z,21.67
2019-02-17T20:03:45.767Z,20.73
2019-02-17T20:07:49.212Z,22.70
2019-02-17T20:11:53.544Z,22.67
2019-02-17T20:15:56.835Z,22.27
2019-02-17T20:20:00.298Z,19.70
2019-02-17T20:24:04.177Z,20.60
2019-02-17T20:28:07.475Z,20.30
2019-02-17T20:32:11.513Z,22.00
2019-02-17T20:36:15.242Z,21.27
2019-02-17T20:40:19.077Z,21.10
2019-02-17T20:44:22.647Z,21.93
2019-02-17T20:48:26.266Z,20.93
2019-02-17T20:52:30.311Z,19.50
2019-02-17T20:56:33.607Z,20.73
2019-02-17T21:00:36.887Z,21.73
2019-02-17T21:04:40.186Z,22.07
2019-02-17T21:08:43.518Z,21.67
2019-02-17T21:12:46.809Z,21.63
2019-02-17T21:16:50.118Z,21.00
2019-02-17T21:20:53.402Z,20.13
2019-02-17T21:24:57.312Z,21.00
2019-02-17T21:29:00.594Z,19.60
2019-02-17T21:33:03.967Z,19.20
2019-02-17T21:37:07.270Z,22.50
2019-02-17T21:41:10.554Z,20.97
2019-02-17T21:45:13.874Z,20.13
2019-02-17T21:49:17.719Z,21.60
2019-02-17T21:53:21.112Z,22.23
2019-02-17T21:57:24.930Z,19.57
2019-02-17T22:01:28.666Z,20.97
2019-02-17T22:05:31.963Z,21.20
2019-02-17T22:09:35.990Z,19.60
2019-02-17T22:13:39.754Z,21.07
2019-02-17T22:17:43.284Z,22.47
2019-02-17T22:21:46.590Z,22.10
2019-02-17T22:25:49.890Z,20.37
2019-02-17T22:29:53.850Z,22.00
2019-02-17T22:33:57.158Z,22.40
2019-02-17T22:38:00.798Z,19.63
2019-02-17T22:42:04.102Z,20.83
2019-02-17T22:46:07.394Z,21.60
2019-02-17T22:50:11.022Z,19.00
2019-02-17T22:54:14.311Z,19.60
2019-02-17T22:58:18.046Z,19.33
2019-02-17T23:02:22.762Z,18.93
2019-02-17T23:06:26.042Z,21.20
2019-02-17T23:10:29.775Z,19.97
2019-02-17T23:14:33.062Z,20.70
2019-02-17T23:18:36.696Z,21.47
2019-02-17T23:22:40.430Z,18.97
2019-02-17T23:26:43.730Z,17.77
2019-02-17T23:30:47.466Z,18.30
2019-02-17T23:34:51.558Z,18.00
2019-02-17T23:38:54.926Z,18.63
2019-02-17T23:42:58.244Z,18.30
2019-02-17T23:47:02.202Z,17.53
2019-02-17T23:51:05.530Z,17.87
2019-02-17T23:55:08.915Z,17.33
2019-02-17T23:59:12.198Z,17.93
